createdAt,value
2022-11-30T00:00:16.738Z,12.87
2022-11-30T00:02:43.727Z,12.80
2022-11-30T00:05:11.435Z,13.30
2022-11-30T00:07:38.531Z,13.20
2022-11-30T00:10:07.462Z,12.10
2022-11-30T00:12:34.403Z,12.73
2022-11-30T00:15:01.448Z,12.73
2022-11-30T00:17:29.845Z,13.37
2022-11-30T00:19:56.704Z,12.97
2022-11-30T00:22:23.615Z,12.87
2022-11-30T00:24:50.481Z,11.50
2022-11-30T00:27:17.296Z,12.73
2022-11-30T00:29:44.172Z,12.07
2022-11-30T00:32:10.974Z,12.90
2022-11-30T00:34:39.150Z,13.33
2022-11-30T00:37:06.027Z,12.30
2022-11-30T00:39:35.595Z,12.80
2022-11-30T00:42:03.017Z,12.63
2022-11-30T00:44:29.945Z,12.33
2022-11-30T00:46:56.744Z,12.57
2022-11-30T00:49:23.607Z,13.07
2022-11-30T00:51:51.954Z,12.50
2022-11-30T00:54:19.019Z,13.60
2022-11-30T00:56:45.885Z,12.20
2022-11-30T00:59:12.779Z,12.57
2022-11-30T01:01:39.615Z,13.03
2022-11-30T01:04:06.959Z,12.60
2022-11-30T01:06:33.851Z,12.93
2022-11-30T01:09:02.915Z,12.57
2022-11-30T01:11:30.976Z,12.43
2022-11-30T01:13:59.094Z,12.43
2022-11-30T01:16:29.292Z,12.10
2022-11-30T01:18:56.894Z,11.57
2022-11-30T01:21:25.396Z,11.30
2022-11-30T01:23:52.936Z,12.07
2022-11-30T01:26:21.775Z,11.80
2022-11-30T01:28:50.525Z,12.33
2022-11-30T01:31:18.018Z,11.77
2022-11-30T01:33:48.765Z,12.90
2022-11-30T01:36:17.605Z,12.27
2022-11-30T01:38:45.879Z,11.70
2022-11-30T01:41:14.695Z,11.77
2022-11-30T01:43:44.733Z,10.60
2022-11-30T01:46:22.196Z,11.70
2022-11-30T01:48:55.154Z,11.63
2022-11-30T01:51:22.387Z,12.40
2022-11-30T01:53:49.427Z,12.67
2022-11-30T01:56:17.631Z,11.60
2022-11-30T01:58:45.991Z,12.10
2022-11-30T02:01:12.891Z,12.53
2022-11-30T02:03:46.566Z,12.53
2022-11-30T02:06:14.320Z,11.70
2022-11-30T02:08:41.193Z,12.13
2022-11-30T02:11:14.506Z,12.73
2022-11-30T02:13:52.891Z,12.77
2022-11-30T02:16:27.083Z,11.43
2022-11-30T02:19:05.802Z,12.23
2022-11-30T02:21:40.236Z,11.63
2022-11-30T02:24:39.413Z,11.77
2022-11-30T02:27:18.429Z,11.83
2022-11-30T02:29:52.568Z,11.33
2022-11-30T02:32:23.106Z,11.67
2022-11-30T02:34:51.836Z,10.20
2022-11-30T02:37:19.552Z,11.10
2022-11-30T02:39:46.514Z,10.43
2022-11-30T02:42:14.247Z,11.43
2022-11-30T02:44:42.720Z,10.63
2022-11-30T02:47:21.309Z,11.13
2022-11-30T02:49:53.840Z,10.83
2022-11-30T02:52:24.981Z,11.10
2022-11-30T02:54:52.197Z,12.20
2022-11-30T02:57:19.117Z,12.93
2022-11-30T02:59:46.018Z,12.33
2022-11-30T03:02:14.214Z,12.23
2022-11-30T03:04:41.091Z,13.60
2022-11-30T03:07:07.940Z,11.77
2022-11-30T03:09:34.688Z,12.87
2022-11-30T03:12:01.515Z,13.07
2022-11-30T03:14:28.336Z,13.83
2022-11-30T03:16:55.150Z,13.87
2022-11-30T03:19:23.423Z,13.77
2022-11-30T03:21:50.223Z,13.23
2022-11-30T03:24:17.016Z,13.03
2022-11-30T03:26:44.027Z,13.23
2022-11-30T03:29:10.986Z,13.83
2022-11-30T03:31:37.812Z,13.47
2022-11-30T03:34:04.673Z,12.07
2022-11-30T03:36:32.946Z,13.33
2022-11-30T03:39:00.152Z,13.50
2022-11-30T03:41:26.959Z,11.53
2022-11-30T03:43:54.009Z,10.70
2022-11-30T03:46:20.851Z,11.73
2022-11-30T03:48:47.842Z,10.80
2022-11-30T03:51:14.894Z,11.50
2022-11-30T03:53:43.135Z,12.10
2022-11-30T03:56:11.319Z,11.13
2022-11-30T03:58:38.760Z,12.10
2022-11-30T04:01:07.839Z,11.30
2022-11-30T04:03:35.834Z,12.33
2022-11-30T04:06:04.242Z,12.67
2022-11-30T04:08:31.973Z,11.33
2022-11-30T04:11:01.842Z,11.03
2022-11-30T04:13:29.797Z,11.93
2022-11-30T04:15:56.912Z,10.67
2022-11-30T04:18:26.462Z,11.87
2022-11-30T04:20:54.544Z,11.93
2022-11-30T04:23:22.418Z,12.43
2022-11-30T04:25:49.389Z,11.73
2022-11-30T04:28:18.007Z,11.77
2022-11-30T04:30:45.844Z,11.33
2022-11-30T04:33:14.396Z,11.43
2022-11-30T04:35:42.107Z,11.10
2022-11-30T04:38:09.165Z,11.10
2022-11-30T04:40:39.670Z,12.37
2022-11-30T04:43:06.899Z,10.67
2022-11-30T04:45:35.840Z,11.17
2022-11-30T04:48:02.753Z,11.30
2022-11-30T04:50:29.603Z,11.07
2022-11-30T04:52:56.637Z,10.77
2022-11-30T04:55:23.533Z,12.00
2022-11-30T04:57:50.468Z,12.77
2022-11-30T05:00:18.910Z,12.47
2022-11-30T05:02:52.478Z,12.53
2022-11-30T05:05:20.458Z,13.17
2022-11-30T05:07:50.240Z,11.80
2022-11-30T05:10:17.371Z,13.03
2022-11-30T05:12:44.300Z,13.50
2022-11-30T05:15:11.639Z,13.23
2022-11-30T05:17:39.289Z,13.17
2022-11-30T05:20:08.595Z,12.70
2022-11-30T05:22:35.523Z,12.40
2022-11-30T05:25:02.537Z,13.63
2022-11-30T05:27:29.474Z,12.13
2022-11-30T05:29:56.281Z,12.97
2022-11-30T05:32:23.171Z,12.07
2022-11-30T05:34:51.644Z,10.60
2022-11-30T05:37:20.212Z,11.13
2022-11-30T05:39:47.108Z,10.67
2022-11-30T05:42:13.930Z,10.10
2022-11-30T05:44:40.811Z,10.10
2022-11-30T05:47:07.703Z,10.73
2022-11-30T05:49:34.562Z,9.80
2022-11-30T05:52:01.452Z,10.40
2022-11-30T05:54:29.624Z,11.13
2022-11-30T05:56:56.638Z,11.23
2022-11-30T05:59:23.745Z,9.73
2022-11-30T06:01:52.371Z,11.60
2022-11-30T06:04:19.638Z,11.17
2022-11-30T06:06:46.765Z,11.47
2022-11-30T06:09:13.637Z,12.00
2022-11-30T06:11:41.784Z,12.23
2022-11-30T06:14:08.782Z,12.33
2022-11-30T06:16:38.477Z,12.47
2022-11-30T06:19:05.586Z,12.50
2022-11-30T06:21:32.396Z,12.27
2022-11-30T06:23:59.282Z,12.73
2022-11-30T06:26:26.252Z,12.20
2022-11-30T06:28:54.472Z,12.17
2022-11-30T06:31:21.291Z,11.63
2022-11-30T06:33:48.191Z,11.03
2022-11-30T06:36:21.123Z,10.83
2022-11-30T06:38:47.970Z,11.40
2022-11-30T06:41:14.956Z,12.17
2022-11-30T06:43:41.872Z,11.00
2022-11-30T06:46:10.280Z,11.10
2022-11-30T06:48:37.471Z,11.90
2022-11-30T06:51:06.075Z,12.17
2022-11-30T06:53:32.943Z,11.87
2022-11-30T06:56:09.425Z,12.73
2022-11-30T06:58:37.467Z,11.43
2022-11-30T07:01:05.437Z,11.70
2022-11-30T07:03:33.779Z,13.10
2022-11-30T07:06:00.572Z,13.70
2022-11-30T07:08:27.438Z,12.33
2022-11-30T07:10:54.284Z,13.37
2022-11-30T07:13:21.169Z,12.13
2022-11-30T07:15:48.033Z,13.07
2022-11-30T07:18:14.849Z,13.87
2022-11-30T07:20:43.188Z,12.37
2022-11-30T07:23:28.869Z,13.17
2022-11-30T07:26:07.535Z,12.87
2022-11-30T07:28:36.090Z,12.70
2022-11-30T07:31:16.175Z,13.00
2022-11-30T07:33:44.180Z,12.80
2022-11-30T07:36:12.380Z,12.47
2022-11-30T07:38:39.625Z,11.77
2022-11-30T07:41:06.994Z,12.67
2022-11-30T07:43:34.285Z,12.50
2022-11-30T07:46:01.424Z,12.00
2022-11-30T07:48:28.434Z,13.47
2022-11-30T07:50:55.514Z,12.40
2022-11-30T07:53:23.753Z,12.83
2022-11-30T07:55:56.731Z,13.13
2022-11-30T07:58:23.926Z,13.80
2022-11-30T08:00:51.337Z,14.60
2022-11-30T08:03:18.394Z,14.60
2022-11-30T08:05:45.568Z,15.27
2022-11-30T08:08:12.420Z,14.13
2022-11-30T08:10:40.898Z,14.47
2022-11-30T08:13:07.839Z,13.73
2022-11-30T08:15:35.162Z,15.20
2022-11-30T08:18:05.541Z,15.40
2022-11-30T08:20:32.517Z,14.67
2022-11-30T08:22:59.580Z,15.20
2022-11-30T08:25:26.578Z,14.47
2022-11-30T08:27:55.003Z,28.40
2022-11-30T08:30:25.178Z,23.97
2022-11-30T08:32:54.761Z,17.03
2022-11-30T08:35:21.813Z,16.07
2022-11-30T08:37:48.759Z,14.70
2022-11-30T08:40:15.894Z,15.03
2022-11-30T08:42:42.766Z,15.20
2022-11-30T08:45:11.630Z,14.50
2022-11-30T08:47:38.570Z,15.53
2022-11-30T08:50:06.481Z,15.53
2022-11-30T08:52:33.370Z,15.73
2022-11-30T08:55:00.218Z,14.70
2022-11-30T08:57:27.107Z,14.83
2022-11-30T08:59:53.966Z,16.57
2022-11-30T09:02:22.284Z,14.67
2022-11-30T09:04:51.033Z,15.93
2022-11-30T09:07:18.115Z,15.70
2022-11-30T09:09:45.212Z,16.03
2022-11-30T09:12:12.427Z,16.80
2022-11-30T09:14:39.642Z,14.90
2022-11-30T09:17:06.603Z,15.57
2022-11-30T09:19:34.914Z,14.53
2022-11-30T09:22:01.764Z,14.70
2022-11-30T09:24:28.909Z,15.03
2022-11-30T09:26:56.776Z,15.67
2022-11-30T09:29:23.886Z,13.40
2022-11-30T09:31:50.777Z,14.10
2022-11-30T09:34:17.714Z,15.03
2022-11-30T09:36:46.090Z,15.33
2022-11-30T09:39:13.200Z,14.83
2022-11-30T09:42:06.040Z,15.30
2022-11-30T09:44:39.697Z,15.07
2022-11-30T09:47:17.490Z,15.07
2022-11-30T09:49:45.409Z,16.13
2022-11-30T09:52:18.771Z,16.40
2022-11-30T09:54:48.019Z,14.63
2022-11-30T09:57:25.645Z,15.53
2022-11-30T09:59:56.005Z,14.20
2022-11-30T10:02:27.273Z,15.47
2022-11-30T10:04:54.684Z,15.17
2022-11-30T10:07:40.802Z,15.47
2022-11-30T10:10:35.453Z,16.30
2022-11-30T10:13:13.612Z,15.80
2022-11-30T10:15:54.299Z,16.83
2022-11-30T10:18:32.387Z,15.53
2022-11-30T10:21:07.192Z,16.70
2022-11-30T10:23:47.110Z,14.50
2022-11-30T10:26:16.922Z,16.57
2022-11-30T10:28:51.560Z,16.50
2022-11-30T10:31:20.404Z,16.83
2022-11-30T10:33:49.976Z,16.67
2022-11-30T10:36:26.979Z,15.23
2022-11-30T10:39:00.978Z,16.03
2022-11-30T10:41:32.189Z,13.93
2022-11-30T10:44:02.792Z,14.67
2022-11-30T10:46:33.823Z,16.23
2022-11-30T10:49:04.938Z,14.27
2022-11-30T10:51:34.286Z,16.30
2022-11-30T10:54:05.825Z,13.90
2022-11-30T10:56:32.711Z,14.50
2022-11-30T10:59:03.728Z,14.33
2022-11-30T11:01:34.205Z,14.80
2022-11-30T11:04:10.230Z,14.77
2022-11-30T11:06:43.226Z,14.17
2022-11-30T11:09:37.332Z,12.57
2022-11-30T11:12:06.242Z,12.63
2022-11-30T11:14:37.684Z,12.67
2022-11-30T11:17:21.637Z,12.70
2022-11-30T11:19:49.837Z,12.07
2022-11-30T11:22:19.818Z,12.37
2022-11-30T11:24:49.612Z,10.97
2022-11-30T11:27:23.621Z,11.97
2022-11-30T11:30:01.056Z,10.20
2022-11-30T11:32:27.988Z,8.80
2022-11-30T11:34:54.882Z,9.97
2022-11-30T11:37:24.351Z,9.33
2022-11-30T11:40:02.160Z,8.93
2022-11-30T11:42:31.690Z,12.30
2022-11-30T11:45:00.905Z,14.10
2022-11-30T11:47:33.038Z,13.57
2022-11-30T11:50:43.309Z,12.83
2022-11-30T11:53:25.473Z,11.93
2022-11-30T11:55:57.866Z,12.43
2022-11-30T11:58:37.199Z,15.23
2022-11-30T12:01:38.041Z,17.27
2022-11-30T12:04:05.099Z,16.07
2022-11-30T12:06:34.458Z,15.23
2022-11-30T12:09:05.204Z,14.63
2022-11-30T12:11:42.437Z,14.27
2022-11-30T12:14:12.446Z,14.87
2022-11-30T12:16:56.755Z,14.40
2022-11-30T12:19:33.675Z,14.83
2022-11-30T12:22:07.544Z,13.00
2022-11-30T12:24:55.721Z,14.30
2022-11-30T12:27:31.451Z,12.07
2022-11-30T12:30:09.869Z,12.20
2022-11-30T12:33:14.461Z,15.70
2022-11-30T12:35:53.026Z,19.80
2022-11-30T12:38:26.669Z,14.75
2022-11-30T12:41:01.594Z,11.40
2022-11-30T12:43:39.254Z,10.97
2022-11-30T12:46:14.838Z,10.57
2022-11-30T12:48:51.898Z,9.87
2022-11-30T12:51:29.822Z,9.30
2022-11-30T12:54:07.421Z,10.00
2022-11-30T12:56:45.667Z,9.37
2022-11-30T12:59:27.946Z,10.27
2022-11-30T13:02:16.149Z,9.17
2022-11-30T13:04:47.102Z,9.93
2022-11-30T13:07:25.237Z,9.40
2022-11-30T13:09:56.563Z,11.30
2022-11-30T13:12:29.379Z,9.10
2022-11-30T13:15:00.860Z,9.40
2022-11-30T13:17:31.276Z,9.97
2022-11-30T13:20:07.636Z,11.82
2022-11-30T13:22:43.005Z,10.80
2022-11-30T13:25:34.058Z,10.67
2022-11-30T13:28:16.525Z,10.67
2022-11-30T13:30:50.972Z,10.93
2022-11-30T13:33:48.146Z,11.03
2022-11-30T13:36:27.297Z,10.33
2022-11-30T13:39:29.709Z,12.30
2022-11-30T13:42:24.018Z,15.40
2022-11-30T13:44:51.324Z,35.17
2022-11-30T13:47:28.844Z,18.77
2022-11-30T13:49:59.076Z,16.90
2022-11-30T13:53:19.561Z,18.93
2022-11-30T13:56:07.684Z,16.90
2022-11-30T13:58:35.319Z,17.27
2022-11-30T14:01:26.743Z,19.10
2022-11-30T14:04:29.730Z,17.97
2022-11-30T14:06:56.587Z,17.43
2022-11-30T14:09:54.726Z,18.77
2022-11-30T14:12:55.905Z,18.20
2022-11-30T14:15:55.776Z,17.10
2022-11-30T14:18:30.270Z,18.07
2022-11-30T14:21:03.494Z,17.90
2022-11-30T14:23:40.221Z,18.23
2022-11-30T14:26:11.210Z,22.33
2022-11-30T14:28:42.827Z,16.80
2022-11-30T14:31:15.998Z,16.87
2022-11-30T14:33:49.309Z,16.83
2022-11-30T14:36:19.224Z,16.83
2022-11-30T14:38:46.085Z,16.90
2022-11-30T14:41:21.123Z,17.97
2022-11-30T14:44:03.538Z,16.07
2022-11-30T14:46:31.001Z,16.83
2022-11-30T14:49:14.140Z,17.20
2022-11-30T14:51:44.815Z,17.97
2022-11-30T14:54:38.464Z,16.90
2022-11-30T14:57:15.908Z,16.30
2022-11-30T14:59:49.127Z,16.43
2022-11-30T15:02:23.850Z,16.63
2022-11-30T15:04:53.305Z,17.07
2022-11-30T15:07:23.038Z,15.63
2022-11-30T15:09:57.278Z,16.67
2022-11-30T15:12:25.629Z,15.23
2022-11-30T15:15:03.257Z,15.90
2022-11-30T15:17:30.297Z,14.77
2022-11-30T15:19:57.204Z,15.47
2022-11-30T15:22:25.485Z,18.13
2022-11-30T15:24:52.434Z,16.57
2022-11-30T15:27:22.795Z,16.80
2022-11-30T15:29:56.824Z,15.30
2022-11-30T15:32:24.436Z,15.00
2022-11-30T15:34:56.744Z,15.23
2022-11-30T15:37:30.286Z,14.43
2022-11-30T15:39:59.793Z,15.13
2022-11-30T15:42:29.841Z,14.23
2022-11-30T15:45:11.070Z,14.23
2022-11-30T15:47:38.885Z,14.40
2022-11-30T15:50:37.431Z,13.93
2022-11-30T15:53:33.205Z,14.50
2022-11-30T15:56:06.176Z,14.10
2022-11-30T15:58:44.735Z,13.87
2022-11-30T16:01:14.598Z,13.10
2022-11-30T16:04:03.974Z,13.50
2022-11-30T16:06:33.889Z,13.03
2022-11-30T16:09:06.275Z,12.13
2022-11-30T16:11:34.830Z,13.87
2022-11-30T16:14:01.879Z,13.40
2022-11-30T16:16:31.243Z,12.80
2022-11-30T16:18:58.205Z,13.93
2022-11-30T16:21:25.261Z,12.70
2022-11-30T16:23:52.096Z,12.23
2022-11-30T16:26:43.663Z,12.60
2022-11-30T16:29:07.328Z,12.27
2022-11-30T16:31:35.144Z,12.93
2022-11-30T16:34:02.136Z,12.87
2022-11-30T16:36:30.390Z,12.90
2022-11-30T16:38:57.730Z,12.93
2022-11-30T16:41:27.535Z,13.10
2022-11-30T16:43:55.741Z,14.17
2022-11-30T16:46:24.330Z,10.73
2022-11-30T16:48:51.655Z,10.87
2022-11-30T16:51:21.366Z,11.17
2022-11-30T16:53:48.396Z,12.13
2022-11-30T16:56:16.065Z,11.60
2022-11-30T16:58:44.666Z,12.93
2022-11-30T17:01:15.313Z,12.77
2022-11-30T17:03:46.712Z,12.17
2022-11-30T17:06:17.776Z,11.30
2022-11-30T17:08:44.922Z,10.90
2022-11-30T17:11:17.140Z,11.07
2022-11-30T17:13:45.706Z,11.73
2022-11-30T17:16:12.630Z,11.17
2022-11-30T17:18:39.566Z,10.60
2022-11-30T17:21:06.946Z,10.60
2022-11-30T17:23:33.773Z,10.23
2022-11-30T17:26:00.719Z,10.20
2022-11-30T17:28:27.592Z,10.43
2022-11-30T17:30:55.806Z,10.77
2022-11-30T17:33:22.755Z,10.67
2022-11-30T17:35:49.707Z,10.13
2022-11-30T17:38:16.589Z,10.93
2022-11-30T17:40:43.467Z,10.60
2022-11-30T17:43:10.304Z,10.37
2022-11-30T17:45:39.167Z,10.20
2022-11-30T17:48:07.520Z,10.43
2022-11-30T17:50:34.508Z,10.20
2022-11-30T17:53:01.362Z,9.80
2022-11-30T17:55:28.227Z,10.30
2022-11-30T17:57:55.125Z,9.80
2022-11-30T18:00:23.108Z,9.10
2022-11-30T18:02:50.910Z,9.23
2022-11-30T18:05:19.815Z,9.57
2022-11-30T18:07:47.188Z,8.90
2022-11-30T18:10:14.754Z,10.43
2022-11-30T18:12:41.578Z,8.70
2022-11-30T18:15:09.410Z,9.23
2022-11-30T18:17:36.380Z,9.57
2022-11-30T18:20:04.233Z,9.67
2022-11-30T18:22:32.923Z,10.00
2022-11-30T18:25:00.057Z,10.10
2022-11-30T18:27:26.945Z,9.40
2022-11-30T18:29:53.921Z,9.33
2022-11-30T18:32:20.736Z,10.57
2022-11-30T18:34:49.822Z,10.63
2022-11-30T18:37:17.141Z,9.93
2022-11-30T18:39:45.363Z,10.60
2022-11-30T18:42:12.265Z,9.57
2022-11-30T18:44:39.066Z,10.03
2022-11-30T18:47:05.881Z,9.73
2022-11-30T18:49:32.822Z,9.97
2022-11-30T18:51:59.825Z,10.10
2022-11-30T18:54:26.780Z,9.87
2022-11-30T18:56:54.919Z,10.30
2022-11-30T18:59:21.758Z,10.17
2022-11-30T19:01:50.832Z,9.70
2022-11-30T19:04:17.958Z,10.50
2022-11-30T19:06:44.835Z,10.20
2022-11-30T19:09:14.501Z,10.03
2022-11-30T19:11:42.428Z,10.77
2022-11-30T19:14:13.564Z,10.37
2022-11-30T19:16:40.759Z,10.47
2022-11-30T19:19:10.554Z,10.57
2022-11-30T19:21:37.455Z,10.30
2022-11-30T19:24:04.940Z,9.87
2022-11-30T19:26:32.085Z,10.43
2022-11-30T19:28:59.142Z,9.67
2022-11-30T19:31:27.706Z,10.50
2022-11-30T19:33:55.824Z,10.23
2022-11-30T19:36:24.341Z,9.73
2022-11-30T19:38:51.455Z,10.17
2022-11-30T19:41:19.725Z,11.37
2022-11-30T19:43:54.695Z,11.37
2022-11-30T19:46:24.908Z,10.60
2022-11-30T19:48:57.758Z,11.03
2022-11-30T19:51:24.685Z,11.17
2022-11-30T19:53:55.688Z,11.13
2022-11-30T19:56:23.560Z,10.73
2022-11-30T19:58:50.740Z,10.40
2022-11-30T20:01:20.048Z,10.30
2022-11-30T20:03:46.977Z,9.50
2022-11-30T20:06:15.255Z,10.03
2022-11-30T20:08:42.393Z,12.63
2022-11-30T20:11:10.394Z,12.03
2022-11-30T20:13:37.606Z,10.87
2022-11-30T20:16:09.211Z,9.83
2022-11-30T20:18:37.505Z,9.57
2022-11-30T20:21:15.991Z,8.50
2022-11-30T20:23:44.687Z,9.40
2022-11-30T20:26:13.752Z,9.53
2022-11-30T20:28:40.872Z,9.53
2022-11-30T20:31:09.113Z,8.90
2022-11-30T20:33:36.653Z,8.50
2022-11-30T20:36:04.698Z,9.20
2022-11-30T20:38:32.974Z,8.90
2022-11-30T20:41:00.235Z,9.63
2022-11-30T20:43:27.356Z,9.90
2022-11-30T20:45:54.263Z,9.17
2022-11-30T20:48:21.131Z,8.97
2022-11-30T20:51:07.587Z,9.90
2022-11-30T20:53:36.456Z,8.77
2022-11-30T20:56:03.674Z,9.23
2022-11-30T20:58:30.873Z,8.33
2022-11-30T21:00:58.871Z,9.07
2022-11-30T21:03:25.900Z,9.98
2022-11-30T21:05:52.891Z,19.60
2022-11-30T21:08:19.840Z,24.27
2022-11-30T21:10:48.096Z,11.97
2022-11-30T21:13:15.257Z,8.17
2022-11-30T21:15:42.170Z,8.13
2022-11-30T21:18:09.139Z,7.97
2022-11-30T21:20:35.934Z,9.10
2022-11-30T21:23:02.761Z,8.40
2022-11-30T21:25:29.578Z,8.07
2022-11-30T21:27:57.795Z,7.70
2022-11-30T21:30:24.629Z,10.17
2022-11-30T21:32:51.424Z,10.07
2022-11-30T21:35:18.253Z,8.13
2022-11-30T21:37:45.159Z,8.30
2022-11-30T21:40:12.630Z,8.97
2022-11-30T21:42:39.561Z,9.23
2022-11-30T21:45:09.447Z,8.23
2022-11-30T21:47:36.754Z,8.27
2022-11-30T21:50:04.371Z,8.10
2022-11-30T21:52:31.171Z,7.83
2022-11-30T21:54:58.047Z,7.87
2022-11-30T21:57:24.890Z,8.50
2022-11-30T21:59:51.735Z,7.93
2022-11-30T22:02:19.863Z,8.23
2022-11-30T22:04:47.123Z,8.33
2022-11-30T22:07:13.941Z,8.90
2022-11-30T22:09:41.165Z,8.13
2022-11-30T22:12:08.023Z,8.50
2022-11-30T22:14:36.357Z,8.03
2022-11-30T22:17:03.185Z,7.97
2022-11-30T22:19:31.404Z,8.17
2022-11-30T22:21:58.216Z,7.97
2022-11-30T22:24:25.085Z,7.87
2022-11-30T22:26:52.094Z,8.73
2022-11-30T22:29:21.150Z,8.10
2022-11-30T22:31:50.418Z,8.73
2022-11-30T22:34:17.662Z,8.43
2022-11-30T22:36:46.472Z,8.77
2022-11-30T22:39:15.072Z,9.37
2022-11-30T22:41:43.858Z,9.30
2022-11-30T22:44:12.999Z,8.93
2022-11-30T22:46:40.090Z,9.27
2022-11-30T22:49:09.303Z,9.37
2022-11-30T22:51:38.092Z,9.57
2022-11-30T22:54:06.840Z,9.60
2022-11-30T22:56:35.675Z,9.47
2022-11-30T22:59:02.897Z,11.80
2022-11-30T23:01:31.513Z,11.40
2022-11-30T23:04:03.308Z,13.10
2022-11-30T23:06:30.672Z,12.30
2022-11-30T23:08:59.213Z,13.73
2022-11-30T23:11:28.472Z,14.47
2022-11-30T23:13:55.604Z,14.17
2022-11-30T23:16:22.529Z,14.70
2022-11-30T23:18:51.548Z,14.60
2022-11-30T23:21:22.487Z,14.47
2022-11-30T23:23:49.662Z,14.40
2022-11-30T23:26:18.561Z,13.30
2022-11-30T23:28:48.088Z,14.07
2022-11-30T23:31:34.114Z,13.87
2022-11-30T23:34:04.937Z,14.27
2022-11-30T23:36:32.127Z,15.13
2022-11-30T23:39:00.837Z,15.70
2022-11-30T23:41:27.760Z,15.00
2022-11-30T23:43:56.295Z,15.00
2022-11-30T23:46:23.536Z,13.87
2022-11-30T23:48:50.786Z,13.70
2022-11-30T23:51:17.677Z,14.27
2022-11-30T23:53:44.628Z,15.57
2022-11-30T23:56:13.903Z,13.57
2022-11-30T23:58:40.740Z,13.73
